createdAt,value
2018-07-04T00:02:03.004Z,3.20
2018-07-04T00:04:42.519Z,3.60
2018-07-04T00:07:22.010Z,3.43
2018-07-04T00:10:01.481Z,3.17
2018-07-04T00:12:47.745Z,3.20
2018-07-04T00:15:28.272Z,3.85
2018-07-04T00:18:07.776Z,4.00
2018-07-04T00:20:47.140Z,3.70
2018-07-04T00:23:26.700Z,3.83
2018-07-04T00:26:06.240Z,4.30
2018-07-04T00:28:50.523Z,2.60
2018-07-04T00:31:29.956Z,3.00
2018-07-04T00:34:09.421Z,3.72
2018-07-04T00:36:48.908Z,2.80
2018-07-04T00:39:29.471Z,3.10
2018-07-04T00:42:09.946Z,2.90
2018-07-04T00:44:49.500Z,3.40
2018-07-04T00:47:29.075Z,3.45
2018-07-04T00:50:08.580Z,2.60
2018-07-04T00:52:48.425Z,3.55
2018-07-04T00:55:28.781Z,3.37
2018-07-04T00:58:08.620Z,3.35
2018-07-04T01:00:49.125Z,2.67
2018-07-04T01:03:29.536Z,3.05
2018-07-04T01:06:09.152Z,4.20
2018-07-04T01:08:48.643Z,2.90
2018-07-04T01:11:27.976Z,3.37
2018-07-04T01:14:07.595Z,3.20
2018-07-04T01:16:47.106Z,3.03
2018-07-04T01:19:26.644Z,3.20
2018-07-04T01:22:06.224Z,3.03
2018-07-04T01:24:45.762Z,3.50
2018-07-04T01:27:25.704Z,3.77
2018-07-04T01:30:05.216Z,3.17
2018-07-04T01:32:44.808Z,3.10
2018-07-04T01:35:24.197Z,3.67
2018-07-04T01:38:03.689Z,3.72
2018-07-04T01:40:43.226Z,3.45
2018-07-04T01:43:22.876Z,3.13
2018-07-04T01:46:02.464Z,3.98
2018-07-04T01:48:42.052Z,4.03
2018-07-04T01:51:22.157Z,3.70
2018-07-04T01:54:01.656Z,3.87
2018-07-04T01:56:41.139Z,3.03
2018-07-04T01:59:20.637Z,3.60
2018-07-04T02:02:00.175Z,4.43
2018-07-04T02:04:40.073Z,3.60
2018-07-04T02:07:19.702Z,4.55
2018-07-04T02:10:00.061Z,4.17
2018-07-04T02:12:39.506Z,4.50
2018-07-04T02:15:22.532Z,3.93
2018-07-04T02:18:02.185Z,3.97
2018-07-04T02:20:41.606Z,4.40
2018-07-04T02:23:21.081Z,3.80
2018-07-04T02:25:56.008Z,4.17
2018-07-04T02:28:35.389Z,4.03
2018-07-04T02:31:18.004Z,3.55
2018-07-04T02:33:57.507Z,4.20
2018-07-04T02:36:31.881Z,5.27
2018-07-04T02:39:11.528Z,4.27
2018-07-04T02:41:50.969Z,4.40
2018-07-04T02:44:30.344Z,4.93
2018-07-04T02:47:06.784Z,4.20
2018-07-04T02:49:46.470Z,5.15
2018-07-04T02:52:20.231Z,4.30
2018-07-04T02:54:59.838Z,3.87
2018-07-04T02:57:40.058Z,4.10
2018-07-04T03:00:19.566Z,4.50
2018-07-04T03:02:59.024Z,3.93
2018-07-04T03:05:38.551Z,3.43
2018-07-04T03:08:18.089Z,4.42
2018-07-04T03:10:57.600Z,3.80
2018-07-04T03:13:37.256Z,4.20
2018-07-04T03:16:16.757Z,5.55
2018-07-04T03:19:00.271Z,4.63
2018-07-04T03:21:39.672Z,4.47
2018-07-04T03:24:20.188Z,4.20
2018-07-04T03:27:00.852Z,4.58
2018-07-04T03:29:40.461Z,4.90
2018-07-04T03:32:24.234Z,4.13
2018-07-04T03:35:03.803Z,6.80
2018-07-04T03:37:43.416Z,3.90
2018-07-04T03:40:22.908Z,4.97
2018-07-04T03:43:02.452Z,4.53
2018-07-04T03:45:42.123Z,4.20
2018-07-04T03:48:24.440Z,4.22
2018-07-04T03:51:03.870Z,3.80
2018-07-04T03:53:43.384Z,4.50
2018-07-04T03:56:23.048Z,4.00
2018-07-04T03:59:03.513Z,3.90
2018-07-04T04:01:50.557Z,3.60
2018-07-04T04:04:33.532Z,3.50
2018-07-04T04:07:12.918Z,3.67
2018-07-04T04:09:52.932Z,4.25
2018-07-04T04:12:32.417Z,3.77
2018-07-04T04:15:11.932Z,3.80
2018-07-04T04:17:54.940Z,3.53
2018-07-04T04:20:34.709Z,3.90
2018-07-04T04:23:15.355Z,3.77
2018-07-04T04:25:54.860Z,3.43
2018-07-04T04:28:29.488Z,3.47
2018-07-04T04:31:09.173Z,3.43
2018-07-04T04:33:53.119Z,3.65
2018-07-04T04:36:32.461Z,4.00
2018-07-04T04:39:12.997Z,4.07
2018-07-04T04:41:52.592Z,3.40
2018-07-04T04:44:32.082Z,3.80
2018-07-04T04:47:11.628Z,3.57
2018-07-04T04:49:55.163Z,3.58
2018-07-04T04:52:34.843Z,2.92
2018-07-04T04:55:15.180Z,2.95
2018-07-04T04:57:54.765Z,2.97
2018-07-04T05:00:34.368Z,3.70
2018-07-04T05:03:14.000Z,2.63
2018-07-04T05:05:53.789Z,2.90
2018-07-04T05:08:34.000Z,3.77
2018-07-04T05:11:13.615Z,4.10
2018-07-04T05:13:53.166Z,3.60
2018-07-04T05:16:32.715Z,4.17
2018-07-04T05:19:15.509Z,3.57
2018-07-04T05:21:55.031Z,3.42
2018-07-04T05:24:35.476Z,3.58
2018-07-04T05:27:14.988Z,3.50
2018-07-04T05:29:55.124Z,3.35
2018-07-04T05:32:34.644Z,3.00
2018-07-04T05:35:14.400Z,4.33
2018-07-04T05:37:54.493Z,4.03
2018-07-04T05:40:34.025Z,4.67
2018-07-04T05:43:13.675Z,5.17
2018-07-04T05:45:53.112Z,5.40
2018-07-04T05:48:32.845Z,6.10
2018-07-04T05:51:12.489Z,4.90
2018-07-04T05:53:51.912Z,5.70
2018-07-04T05:56:31.451Z,4.47
2018-07-04T05:59:05.221Z,4.80
2018-07-04T06:01:45.006Z,4.60
2018-07-04T06:04:24.633Z,5.75
2018-07-04T06:07:04.204Z,5.23
2018-07-04T06:09:45.673Z,5.65
2018-07-04T06:12:25.176Z,5.97
2018-07-04T06:15:04.691Z,5.40
2018-07-04T06:17:44.832Z,7.93
2018-07-04T06:20:24.156Z,6.60
2018-07-04T06:23:03.561Z,5.30
2018-07-04T06:25:43.036Z,7.00
2018-07-04T06:28:23.460Z,6.45
2018-07-04T06:31:02.975Z,7.78
2018-07-04T06:33:42.520Z,6.30
2018-07-04T06:36:22.024Z,6.57
2018-07-04T06:38:49.292Z,5.57
2018-07-04T06:41:16.532Z,6.50
2018-07-04T06:43:43.777Z,7.20
2018-07-04T06:46:12.252Z,6.60
2018-07-04T06:48:39.712Z,8.03
2018-07-04T06:51:07.377Z,7.90
2018-07-04T06:53:34.716Z,8.35
2018-07-04T06:56:02.083Z,8.00
2018-07-04T06:58:29.416Z,7.50
2018-07-04T07:00:56.670Z,7.17
2018-07-04T07:03:36.292Z,10.90
2018-07-04T07:06:15.838Z,7.63
2018-07-04T07:08:55.484Z,9.15
2018-07-04T07:11:34.856Z,9.00
2018-07-04T07:14:14.462Z,7.95
2018-07-04T07:16:54.151Z,7.00
2018-07-04T07:19:34.363Z,7.67
2018-07-04T07:22:13.938Z,7.10
2018-07-04T07:24:53.585Z,6.80
2018-07-04T07:27:33.194Z,7.60
2018-07-04T07:30:12.844Z,8.03
2018-07-04T07:32:52.465Z,7.70
2018-07-04T07:35:39.774Z,7.43
2018-07-04T07:38:19.364Z,6.70
2018-07-04T07:40:58.853Z,6.57
2018-07-04T07:43:38.548Z,8.48
2018-07-04T07:46:18.003Z,7.97
2018-07-04T07:48:52.646Z,7.15
2018-07-04T07:51:32.228Z,6.30
2018-07-04T07:54:15.534Z,6.70
2018-07-04T07:56:54.917Z,5.95
2018-07-04T07:59:34.255Z,5.58
2018-07-04T08:02:14.612Z,6.60
2018-07-04T08:04:54.156Z,5.23
2018-07-04T08:07:33.804Z,5.60
2018-07-04T08:10:13.293Z,6.37
2018-07-04T08:12:52.759Z,5.57
2018-07-04T08:15:32.222Z,4.80
2018-07-04T08:18:11.918Z,4.60
2018-07-04T08:20:55.752Z,4.28
2018-07-04T08:23:35.286Z,4.40
2018-07-04T08:26:08.886Z,4.37
2018-07-04T08:28:48.349Z,3.37
2018-07-04T08:31:22.137Z,4.13
2018-07-04T08:34:01.853Z,4.43
2018-07-04T08:36:41.852Z,5.03
2018-07-04T08:39:21.319Z,4.63
2018-07-04T08:42:00.801Z,4.70
2018-07-04T08:44:40.465Z,5.20
2018-07-04T08:47:20.015Z,5.20
2018-07-04T08:49:59.533Z,3.95
2018-07-04T08:52:39.023Z,5.53
2018-07-04T08:55:18.608Z,4.47
2018-07-04T08:57:58.107Z,5.03
2018-07-04T09:00:38.188Z,4.95
2018-07-04T09:03:17.826Z,4.40
2018-07-04T09:05:57.341Z,4.33
2018-07-04T09:08:40.351Z,3.20
2018-07-04T09:11:19.876Z,3.40
2018-07-04T09:13:59.470Z,4.50
2018-07-04T09:16:39.609Z,3.85
2018-07-04T09:19:19.132Z,4.23
2018-07-04T09:21:58.638Z,4.70
2018-07-04T09:24:35.822Z,3.90
2018-07-04T09:27:15.304Z,4.77
2018-07-04T09:29:54.939Z,4.00
2018-07-04T09:32:35.109Z,5.30
2018-07-04T09:35:14.523Z,4.70
2018-07-04T09:37:53.960Z,4.83
2018-07-04T09:40:33.417Z,4.70
2018-07-04T09:43:12.835Z,3.10
2018-07-04T09:45:52.192Z,3.05
2018-07-04T09:48:31.620Z,4.00
2018-07-04T09:51:11.138Z,2.80
2018-07-04T09:53:58.335Z,2.77
2018-07-04T09:56:37.915Z,2.70
2018-07-04T09:59:17.472Z,3.17
2018-07-04T10:01:56.892Z,2.37
2018-07-04T10:04:36.427Z,3.63
2018-07-04T10:07:15.988Z,2.40
2018-07-04T10:09:56.153Z,2.30
2018-07-04T10:12:35.534Z,2.40
2018-07-04T10:15:15.203Z,3.33
2018-07-04T10:17:55.067Z,2.10
2018-07-04T10:20:34.729Z,2.67
2018-07-04T10:23:26.009Z,2.30
2018-07-04T10:26:05.637Z,2.93
2018-07-04T10:28:45.219Z,3.00
2018-07-04T10:31:24.883Z,2.70
2018-07-04T10:34:04.792Z,1.70
2018-07-04T10:36:44.532Z,2.10
2018-07-04T10:39:28.809Z,2.73
2018-07-04T10:42:02.334Z,3.53
2018-07-04T10:44:42.001Z,2.07
2018-07-04T10:47:21.636Z,3.30
2018-07-04T10:50:01.277Z,2.00
2018-07-04T10:52:40.911Z,1.63
2018-07-04T10:55:24.492Z,1.77
2018-07-04T10:58:03.973Z,2.23
2018-07-04T11:00:43.425Z,1.60
2018-07-04T11:03:22.967Z,2.53
2018-07-04T11:06:02.350Z,2.87
2018-07-04T11:08:44.987Z,1.90
2018-07-04T11:11:24.588Z,2.08
2018-07-04T11:14:04.063Z,2.00
2018-07-04T11:16:43.653Z,2.20
2018-07-04T11:19:23.234Z,8.10
2018-07-04T11:22:03.644Z,2.35
2018-07-04T11:24:43.127Z,1.80
2018-07-04T11:27:22.552Z,2.17
2018-07-04T11:30:02.382Z,1.80
2018-07-04T11:32:42.063Z,1.67
2018-07-04T11:35:22.627Z,1.70
2018-07-04T11:38:02.219Z,1.50
2018-07-04T11:40:41.756Z,1.50
2018-07-04T11:43:16.330Z,1.83
2018-07-04T11:45:55.328Z,1.57
2018-07-04T11:48:23.831Z,1.77
2018-07-04T11:50:51.472Z,1.90
2018-07-04T11:53:18.778Z,2.17
2018-07-04T11:55:46.028Z,3.33
2018-07-04T11:58:13.660Z,2.30
2018-07-04T12:00:40.926Z,2.98
2018-07-04T12:03:16.161Z,2.23
2018-07-04T12:05:56.220Z,2.22
2018-07-04T12:08:23.478Z,1.90
2018-07-04T12:10:50.973Z,1.63
2018-07-04T12:13:19.409Z,1.20
2018-07-04T12:15:47.585Z,2.07
2018-07-04T12:18:14.835Z,1.92
2018-07-04T12:20:43.111Z,2.10
2018-07-04T12:23:10.845Z,1.60
2018-07-04T12:25:38.493Z,1.98
2018-07-04T12:28:05.831Z,1.80
2018-07-04T12:30:34.143Z,1.50
2018-07-04T12:33:01.894Z,2.02
2018-07-04T12:35:29.173Z,2.60
2018-07-04T12:37:56.492Z,1.73
2018-07-04T12:40:26.965Z,1.80
2018-07-04T12:42:54.266Z,1.92
2018-07-04T12:45:22.297Z,1.50
2018-07-04T12:47:49.658Z,2.47
2018-07-04T12:50:26.316Z,1.72
2018-07-04T12:52:54.248Z,1.50
2018-07-04T12:55:43.109Z,1.60
2018-07-04T12:58:22.805Z,1.70
2018-07-04T13:01:02.380Z,1.97
2018-07-04T13:03:41.974Z,1.30
2018-07-04T13:06:21.397Z,2.20
2018-07-04T13:09:01.665Z,2.10
2018-07-04T13:11:41.369Z,2.27
2018-07-04T13:14:21.105Z,2.60
2018-07-04T13:17:00.756Z,1.60
2018-07-04T13:19:40.443Z,1.90
2018-07-04T13:22:14.863Z,2.10
2018-07-04T13:24:54.453Z,2.27
2018-07-04T13:27:34.148Z,1.63
2018-07-04T13:30:13.599Z,1.60
2018-07-04T13:32:53.196Z,2.20
2018-07-04T13:35:32.677Z,1.60
2018-07-04T13:38:12.216Z,1.75
2018-07-04T13:40:46.733Z,1.80
2018-07-04T13:43:26.440Z,1.80
2018-07-04T13:46:05.925Z,1.87
2018-07-04T13:48:39.408Z,1.37
2018-07-04T13:51:19.326Z,1.57
2018-07-04T13:53:58.906Z,1.63
2018-07-04T13:56:32.568Z,1.92
2018-07-04T13:59:12.270Z,2.20
2018-07-04T14:01:46.116Z,2.17
2018-07-04T14:04:25.758Z,1.43
2018-07-04T14:07:05.502Z,1.60
2018-07-04T14:09:45.397Z,2.20
2018-07-04T14:12:25.977Z,1.80
2018-07-04T14:15:05.656Z,1.60
2018-07-04T14:17:45.250Z,1.98
2018-07-04T14:20:19.667Z,1.23
2018-07-04T14:22:59.199Z,1.87
2018-07-04T14:25:38.843Z,1.75
2018-07-04T14:28:18.605Z,1.80
2018-07-04T14:30:58.392Z,3.87
2018-07-04T14:33:38.082Z,2.73
2018-07-04T14:36:17.670Z,3.50
2018-07-04T14:38:58.419Z,2.92
2018-07-04T14:41:37.985Z,2.67
2018-07-04T14:44:17.686Z,3.63
2018-07-04T14:46:57.228Z,3.83
2018-07-04T14:49:36.709Z,3.40
2018-07-04T14:52:12.165Z,3.10
2018-07-04T14:54:52.054Z,3.40
2018-07-04T14:57:34.892Z,3.30
2018-07-04T15:00:14.624Z,3.37
2018-07-04T15:02:54.369Z,3.33
2018-07-04T15:05:34.019Z,4.40
2018-07-04T15:08:13.618Z,3.60
2018-07-04T15:10:53.121Z,4.43
2018-07-04T15:13:32.717Z,3.30
2018-07-04T15:16:12.307Z,3.60
2018-07-04T15:18:52.044Z,3.27
2018-07-04T15:21:31.759Z,3.80
2018-07-04T15:24:11.376Z,3.70
2018-07-04T15:26:51.862Z,3.70
2018-07-04T15:29:34.347Z,3.87
2018-07-04T15:32:13.854Z,2.92
2018-07-04T15:34:53.374Z,3.07
2018-07-04T15:37:33.072Z,3.30
2018-07-04T15:40:12.632Z,3.20
2018-07-04T15:42:52.388Z,3.72
2018-07-04T15:45:31.999Z,3.35
2018-07-04T15:48:05.833Z,3.30
2018-07-04T15:50:45.474Z,4.03
2018-07-04T15:53:25.226Z,3.70
2018-07-04T15:56:04.803Z,4.35
2018-07-04T15:58:48.466Z,3.20
2018-07-04T16:01:27.981Z,3.53
2018-07-04T16:04:07.723Z,3.73
2018-07-04T16:06:47.339Z,4.60
2018-07-04T16:09:26.807Z,3.25
2018-07-04T16:12:07.589Z,3.17
2018-07-04T16:14:47.064Z,3.30
2018-07-04T16:17:26.843Z,3.70
2018-07-04T16:20:06.704Z,3.80
2018-07-04T16:22:46.229Z,3.80
2018-07-04T16:25:20.565Z,4.37
2018-07-04T16:28:00.034Z,3.83
2018-07-04T16:30:39.604Z,3.40
2018-07-04T16:33:19.309Z,4.10
2018-07-04T16:35:58.732Z,3.50
2018-07-04T16:38:38.306Z,3.57
2018-07-04T16:41:11.851Z,3.40
2018-07-04T16:43:52.062Z,4.60
2018-07-04T16:46:28.867Z,4.35
2018-07-04T16:49:08.404Z,4.43
2018-07-04T16:51:42.056Z,3.60
2018-07-04T16:54:21.756Z,4.50
2018-07-04T16:57:01.257Z,3.72
2018-07-04T16:59:45.126Z,3.13
2018-07-04T17:02:24.813Z,4.13
2018-07-04T17:05:04.370Z,3.73
2018-07-04T17:07:43.946Z,4.47
2018-07-04T17:10:23.552Z,3.90
2018-07-04T17:13:03.162Z,3.90
2018-07-04T17:15:43.293Z,3.15
2018-07-04T17:18:22.837Z,3.70
2018-07-04T17:21:02.344Z,3.83
2018-07-04T17:23:42.022Z,4.97
2018-07-04T17:26:15.507Z,4.00
2018-07-04T17:28:55.098Z,3.13
2018-07-04T17:31:37.720Z,3.50
2018-07-04T17:34:17.304Z,3.50
2018-07-04T17:36:57.304Z,3.42
2018-07-04T17:39:36.714Z,4.17
2018-07-04T17:42:16.305Z,3.80
2018-07-04T17:44:55.988Z,4.35
2018-07-04T17:47:29.455Z,3.60
2018-07-04T17:50:09.179Z,3.97
2018-07-04T17:52:48.767Z,3.70
2018-07-04T17:55:23.025Z,3.98
2018-07-04T17:58:02.549Z,5.10
2018-07-04T18:00:44.980Z,3.93
2018-07-04T18:03:24.645Z,3.50
2018-07-04T18:06:04.283Z,4.23
2018-07-04T18:08:43.737Z,3.60
2018-07-04T18:11:24.007Z,4.60
2018-07-04T18:14:03.442Z,4.90
2018-07-04T18:16:43.351Z,4.60
2018-07-04T18:19:23.052Z,6.40
2018-07-04T18:22:02.565Z,4.70
2018-07-04T18:24:42.211Z,3.90
2018-07-04T18:27:21.648Z,4.40
2018-07-04T18:30:02.030Z,5.00
2018-07-04T18:32:41.533Z,4.72
2018-07-04T18:35:21.031Z,4.37
2018-07-04T18:38:00.653Z,4.57
2018-07-04T18:40:40.492Z,4.00
2018-07-04T18:43:20.237Z,6.37
2018-07-04T18:46:04.823Z,5.60
2018-07-04T18:48:44.337Z,5.12
2018-07-04T18:51:23.973Z,4.33
2018-07-04T18:53:58.301Z,4.23
2018-07-04T18:56:38.297Z,5.40
2018-07-04T18:59:18.136Z,5.40
2018-07-04T19:02:02.212Z,4.40
2018-07-04T19:04:41.741Z,5.63
2018-07-04T19:07:21.633Z,4.60
2018-07-04T19:10:01.562Z,5.12
2018-07-04T19:12:41.220Z,5.20
2018-07-04T19:15:20.760Z,5.20
2018-07-04T19:18:01.562Z,6.12
2018-07-04T19:20:41.179Z,4.92
2018-07-04T19:23:20.972Z,5.30
2018-07-04T19:26:02.307Z,4.93
2018-07-04T19:28:42.500Z,5.63
2018-07-04T19:31:22.147Z,5.17
2018-07-04T19:34:02.465Z,5.78
2018-07-04T19:36:41.880Z,6.40
2018-07-04T19:39:21.449Z,5.63
2018-07-04T19:42:01.081Z,5.33
2018-07-04T19:44:40.691Z,5.93
2018-07-04T19:47:23.621Z,5.50
2018-07-04T19:50:03.847Z,5.60
2018-07-04T19:52:43.336Z,5.77
2018-07-04T19:55:23.112Z,5.50
2018-07-04T19:58:02.832Z,5.40
2018-07-04T20:00:44.161Z,5.60
2018-07-04T20:03:24.832Z,6.47
2018-07-04T20:06:05.239Z,6.00
2018-07-04T20:08:44.752Z,5.30
2018-07-04T20:11:24.120Z,6.13
2018-07-04T20:14:03.647Z,5.20
2018-07-04T20:16:37.440Z,5.80
2018-07-04T20:19:17.168Z,6.03
2018-07-04T20:21:57.194Z,6.33
2018-07-04T20:24:37.069Z,6.30
2018-07-04T20:27:16.625Z,5.53
2018-07-04T20:29:56.465Z,5.25
2018-07-04T20:32:36.003Z,5.78
2018-07-04T20:35:15.627Z,5.70
2018-07-04T20:40:41.364Z,6.80
2018-07-04T20:43:20.919Z,6.77
2018-07-04T20:45:54.519Z,6.33
2018-07-04T20:48:37.448Z,6.70
2018-07-04T20:51:17.322Z,7.70
2018-07-04T20:53:56.785Z,5.97
2018-07-04T20:56:30.392Z,6.80
2018-07-04T20:59:10.416Z,5.67
2018-07-04T21:01:49.961Z,6.60
2018-07-04T21:04:29.779Z,6.33
2018-07-04T21:07:09.449Z,6.70
2018-07-04T21:09:49.192Z,6.30
2018-07-04T21:12:29.375Z,6.67
2018-07-04T21:15:08.981Z,7.12
2018-07-04T21:17:48.584Z,7.37
2018-07-04T21:20:28.179Z,7.30
2018-07-04T21:23:07.762Z,7.30
2018-07-04T21:25:47.244Z,7.07
2018-07-04T21:28:26.776Z,6.15
2018-07-04T21:31:01.236Z,7.53
2018-07-04T21:33:34.879Z,7.60
2018-07-04T21:36:14.503Z,7.50
2018-07-04T21:38:54.067Z,7.27
2018-07-04T21:41:33.686Z,6.78
2018-07-04T21:44:13.280Z,7.70
2018-07-04T21:46:52.767Z,6.70
2018-07-04T21:49:30.653Z,7.20
2018-07-04T21:52:10.241Z,7.73
2018-07-04T21:54:49.781Z,6.93
2018-07-04T21:57:29.325Z,6.97
2018-07-04T22:00:08.837Z,7.23
2018-07-04T22:02:48.329Z,7.60
2018-07-04T22:05:27.024Z,8.30
2018-07-04T22:08:06.773Z,8.50
2018-07-04T22:10:41.072Z,7.80
2018-07-04T22:13:20.473Z,8.90
2018-07-04T22:16:00.077Z,7.93
2018-07-04T22:18:40.548Z,7.83
2018-07-04T22:21:20.041Z,8.30
2018-07-04T22:24:00.397Z,8.08
2018-07-04T22:26:40.080Z,6.47
2018-07-04T22:29:19.580Z,6.60
2018-07-04T22:31:59.079Z,7.07
2018-07-04T22:34:39.583Z,7.60
2018-07-04T22:37:20.053Z,7.33
2018-07-04T22:39:59.589Z,7.80
2018-07-04T22:42:39.188Z,7.30
2018-07-04T22:45:18.641Z,7.50
2018-07-04T22:47:58.109Z,7.83
2018-07-04T22:50:40.682Z,8.53
2018-07-04T22:53:20.236Z,7.60
2018-07-04T22:55:59.871Z,9.30
2018-07-04T22:58:40.011Z,8.93
2018-07-04T23:01:19.477Z,9.33
2018-07-04T23:03:59.107Z,8.97
2018-07-04T23:06:38.653Z,11.13
2018-07-04T23:09:18.272Z,10.35
2018-07-04T23:11:57.892Z,12.37
2018-07-04T23:14:37.765Z,12.60
2018-07-04T23:17:17.624Z,11.13
2018-07-04T23:19:57.232Z,12.00
2018-07-04T23:22:36.780Z,9.80
2018-07-04T23:25:10.305Z,8.80
2018-07-04T23:27:49.795Z,9.90
2018-07-04T23:30:29.256Z,10.27
2018-07-04T23:33:08.872Z,9.60
2018-07-04T23:35:52.316Z,9.30
2018-07-04T23:38:31.868Z,9.00
2018-07-04T23:41:11.320Z,10.60
2018-07-04T23:43:44.846Z,10.63
2018-07-04T23:46:24.516Z,12.50
2018-07-04T23:49:04.037Z,11.60
2018-07-04T23:51:43.868Z,13.60
2018-07-04T23:54:23.601Z,13.03
2018-07-04T23:57:03.424Z,13.78
2018-07-04T23:59:42.910Z,11.03
